createdAt,value
2017-01-16T00:00:39.574Z,0
2017-01-16T00:01:21.181Z,0
2017-01-16T00:02:02.823Z,0
2017-01-16T00:02:44.414Z,0
2017-01-16T00:03:26.077Z,0
2017-01-16T00:04:07.810Z,0
2017-01-16T00:04:49.481Z,0
2017-01-16T00:05:31.124Z,0
2017-01-16T00:06:12.738Z,0
2017-01-16T00:06:54.480Z,0
2017-01-16T00:07:35.799Z,0
2017-01-16T00:08:17.332Z,0
2017-01-16T00:08:59.002Z,0
2017-01-16T00:09:40.743Z,0
2017-01-16T00:10:22.388Z,0
2017-01-16T00:11:04.102Z,0
2017-01-16T00:11:45.810Z,0
2017-01-16T00:12:27.532Z,0
2017-01-16T00:13:09.278Z,0
2017-01-16T00:13:51.001Z,0
2017-01-16T00:14:32.729Z,0
2017-01-16T00:15:14.454Z,0
2017-01-16T00:15:56.215Z,0
2017-01-16T00:16:37.924Z,0
2017-01-16T00:17:19.602Z,0
2017-01-16T00:19:34.938Z,0
2017-01-16T00:22:16.732Z,0
2017-01-16T00:22:58.490Z,0
2017-01-16T00:23:40.223Z,0
2017-01-16T00:24:21.969Z,0
2017-01-16T00:25:03.605Z,0
2017-01-16T00:25:45.317Z,0
2017-01-16T00:26:26.994Z,0
2017-01-16T00:27:08.611Z,0
2017-01-16T00:27:50.309Z,0
2017-01-16T00:28:32.051Z,0
2017-01-16T00:29:13.807Z,0
2017-01-16T00:29:55.572Z,0
2017-01-16T00:30:37.262Z,0
2017-01-16T00:31:19.019Z,0
2017-01-16T00:32:00.689Z,0
2017-01-16T00:32:42.406Z,0
2017-01-16T00:33:24.106Z,0
2017-01-16T00:34:05.807Z,0
2017-01-16T00:34:47.177Z,0
2017-01-16T00:35:28.803Z,0
2017-01-16T00:41:54.717Z,0
2017-01-16T00:42:36.414Z,0
2017-01-16T00:43:17.968Z,0
2017-01-16T00:45:33.420Z,0
2017-01-16T00:48:09.866Z,0
2017-01-16T00:48:51.603Z,0
2017-01-16T00:49:33.362Z,0
2017-01-16T00:52:04.467Z,0
2017-01-16T00:52:46.199Z,0
2017-01-16T00:53:27.945Z,0
2017-01-16T00:54:09.667Z,0
2017-01-16T00:54:51.389Z,0
2017-01-16T00:57:22.439Z,0
2017-01-16T00:58:04.199Z,0
2017-01-16T00:58:45.870Z,0
2017-01-16T00:59:27.582Z,0
2017-01-16T01:00:09.325Z,0
2017-01-16T01:00:51.066Z,0
2017-01-16T01:01:32.261Z,0
2017-01-16T01:02:13.711Z,0
2017-01-16T01:06:34.377Z,0
2017-01-16T01:07:16.089Z,0
2017-01-16T01:07:57.898Z,0
2017-01-16T01:08:39.622Z,0
2017-01-16T01:09:21.364Z,0
2017-01-16T01:10:02.840Z,0
2017-01-16T01:10:44.551Z,0
2017-01-16T01:11:26.271Z,0
2017-01-16T01:12:07.979Z,0
2017-01-16T01:12:49.726Z,0
2017-01-16T01:13:31.446Z,0
2017-01-16T01:14:13.201Z,0
2017-01-16T01:14:54.883Z,0
2017-01-16T01:20:59.764Z,0
2017-01-16T01:23:20.435Z,0
2017-01-16T01:24:02.169Z,0
2017-01-16T01:24:43.962Z,0
2017-01-16T01:25:25.693Z,0
2017-01-16T01:26:07.451Z,0
2017-01-16T01:26:49.180Z,0
2017-01-16T01:27:30.930Z,0
2017-01-16T01:28:12.645Z,0
2017-01-16T01:28:54.396Z,0
2017-01-16T01:29:36.155Z,0
2017-01-16T01:30:17.878Z,0
2017-01-16T01:30:59.629Z,0
2017-01-16T01:31:41.368Z,0
2017-01-16T01:32:23.027Z,0
2017-01-16T01:33:04.887Z,0
2017-01-16T01:33:46.510Z,0
2017-01-16T01:36:17.529Z,0
2017-01-16T01:36:59.258Z,0
2017-01-16T01:37:40.979Z,0
2017-01-16T01:38:22.687Z,0
2017-01-16T01:39:04.431Z,0
2017-01-16T01:39:46.190Z,0
2017-01-16T01:40:27.900Z,0
2017-01-16T01:41:09.638Z,0
2017-01-16T01:41:51.282Z,0
2017-01-16T01:42:32.878Z,0
2017-01-16T01:43:14.568Z,0
2017-01-16T01:43:56.123Z,0
2017-01-16T01:44:37.901Z,0
2017-01-16T01:45:19.636Z,0
2017-01-16T01:46:01.274Z,0
2017-01-16T01:46:42.984Z,0
2017-01-16T01:47:24.661Z,0
2017-01-16T01:48:06.383Z,0
2017-01-16T01:48:48.120Z,0
2017-01-16T01:49:29.799Z,0
2017-01-16T01:50:11.489Z,0
2017-01-16T01:50:53.057Z,0
2017-01-16T01:51:34.798Z,0
2017-01-16T01:52:16.260Z,0
2017-01-16T01:52:57.981Z,0
2017-01-16T01:55:39.751Z,0
2017-01-16T01:58:10.892Z,0
2017-01-16T01:58:52.637Z,0
2017-01-16T01:59:34.101Z,0
2017-01-16T02:00:14.632Z,0
2017-01-16T02:00:55.162Z,0
2017-01-16T02:01:35.703Z,0
2017-01-16T02:02:16.235Z,0
2017-01-16T02:02:56.763Z,0
2017-01-16T02:03:37.300Z,0
2017-01-16T02:04:17.816Z,0
2017-01-16T02:04:58.335Z,0
2017-01-16T02:05:38.857Z,0
2017-01-16T02:06:19.378Z,0
2017-01-16T02:06:59.906Z,0
2017-01-16T02:07:40.434Z,0
2017-01-16T02:08:20.968Z,0
2017-01-16T02:09:01.503Z,0
2017-01-16T02:09:42.020Z,0
2017-01-16T02:10:22.540Z,0
2017-01-16T02:11:03.064Z,0
2017-01-16T02:11:43.593Z,0
2017-01-16T02:12:24.122Z,0
2017-01-16T02:13:04.645Z,0
2017-01-16T02:13:45.175Z,0
2017-01-16T02:14:25.712Z,0
2017-01-16T02:15:06.244Z,0
2017-01-16T02:15:46.769Z,0
2017-01-16T02:16:27.295Z,0
2017-01-16T02:17:07.825Z,0
2017-01-16T02:17:48.359Z,0
2017-01-16T02:18:28.891Z,0
2017-01-16T02:19:09.420Z,0
2017-01-16T02:19:49.952Z,0
2017-01-16T02:20:30.488Z,0
2017-01-16T02:21:11.017Z,0
2017-01-16T02:21:51.550Z,0
2017-01-16T02:22:32.078Z,0
2017-01-16T02:23:12.617Z,0
2017-01-16T02:23:53.140Z,0
2017-01-16T02:24:33.673Z,0
2017-01-16T02:25:14.209Z,0
2017-01-16T02:25:54.736Z,0
2017-01-16T02:26:35.253Z,0
2017-01-16T02:27:15.792Z,0
2017-01-16T02:27:56.329Z,0
2017-01-16T02:28:36.860Z,0
2017-01-16T02:29:17.382Z,0
2017-01-16T02:29:57.912Z,0
2017-01-16T02:30:38.445Z,0
2017-01-16T02:31:18.974Z,0
2017-01-16T02:31:59.513Z,0
2017-01-16T02:32:40.033Z,0
2017-01-16T02:33:20.563Z,0
2017-01-16T02:34:01.096Z,0
2017-01-16T02:34:41.633Z,0
2017-01-16T02:35:22.157Z,0
2017-01-16T02:36:02.682Z,0
2017-01-16T02:36:43.220Z,0
2017-01-16T02:37:23.752Z,0
2017-01-16T02:38:04.283Z,0
2017-01-16T02:38:44.815Z,0
2017-01-16T02:39:25.345Z,0
2017-01-16T02:40:05.872Z,0
2017-01-16T02:40:46.400Z,0
2017-01-16T02:41:26.936Z,0
2017-01-16T02:42:07.471Z,0
2017-01-16T02:42:47.997Z,0
2017-01-16T02:43:28.530Z,0
2017-01-16T02:44:09.063Z,0
2017-01-16T02:44:49.602Z,0
2017-01-16T02:45:30.143Z,0
2017-01-16T02:46:10.669Z,0
2017-01-16T02:46:51.203Z,0
2017-01-16T02:47:31.733Z,0
2017-01-16T02:48:12.257Z,0
2017-01-16T02:48:52.791Z,0
2017-01-16T02:49:33.322Z,0
2017-01-16T02:50:13.839Z,0
2017-01-16T02:50:54.366Z,0
2017-01-16T02:51:35.006Z,0
2017-01-16T02:52:16.266Z,0
2017-01-16T02:52:57.140Z,0
2017-01-16T02:53:37.998Z,0
2017-01-16T02:54:18.531Z,0
2017-01-16T02:54:59.066Z,0
2017-01-16T02:55:39.612Z,0
2017-01-16T02:56:20.126Z,0
2017-01-16T02:57:00.637Z,0
2017-01-16T02:57:41.166Z,0
2017-01-16T02:58:21.691Z,0
2017-01-16T02:59:02.228Z,0
2017-01-16T02:59:42.756Z,0
2017-01-16T03:00:23.285Z,0
2017-01-16T03:01:03.817Z,0
2017-01-16T03:01:44.345Z,0
2017-01-16T03:02:24.874Z,0
2017-01-16T03:03:05.400Z,0
2017-01-16T03:03:45.929Z,0
2017-01-16T03:04:26.465Z,0
2017-01-16T03:05:06.987Z,0
2017-01-16T03:05:47.516Z,0
2017-01-16T03:06:28.037Z,0
2017-01-16T03:07:08.570Z,0
2017-01-16T03:07:49.087Z,0
2017-01-16T03:08:29.617Z,0
2017-01-16T03:09:10.151Z,0
2017-01-16T03:09:50.685Z,0
2017-01-16T03:10:31.223Z,0
2017-01-16T03:11:11.746Z,0
2017-01-16T03:11:52.278Z,0
2017-01-16T03:12:32.811Z,0
2017-01-16T03:13:13.330Z,0
2017-01-16T03:13:53.862Z,0
2017-01-16T03:14:34.391Z,0
2017-01-16T03:15:14.927Z,0
2017-01-16T03:15:55.449Z,0
2017-01-16T03:16:35.987Z,0
2017-01-16T03:17:16.524Z,0
2017-01-16T03:17:57.050Z,0
2017-01-16T03:18:37.579Z,0
2017-01-16T03:19:18.112Z,0
2017-01-16T03:19:58.645Z,0
2017-01-16T03:20:39.185Z,0
2017-01-16T03:21:19.701Z,0
2017-01-16T03:22:00.232Z,0
2017-01-16T03:22:40.759Z,0
2017-01-16T03:23:21.293Z,0
2017-01-16T03:24:01.825Z,0
2017-01-16T03:24:42.336Z,0
2017-01-16T03:25:22.865Z,0
2017-01-16T03:26:03.396Z,0
2017-01-16T03:26:43.916Z,0
2017-01-16T03:27:24.444Z,0
2017-01-16T03:28:04.972Z,0
2017-01-16T03:28:45.499Z,0
2017-01-16T03:29:26.030Z,0
2017-01-16T03:30:06.561Z,0
2017-01-16T03:30:47.088Z,0
2017-01-16T03:31:27.611Z,0
2017-01-16T03:32:08.146Z,0
2017-01-16T03:32:48.673Z,0
2017-01-16T03:33:29.200Z,0
2017-01-16T03:34:09.729Z,0
2017-01-16T03:34:50.263Z,0
2017-01-16T03:35:30.787Z,0
2017-01-16T03:36:11.312Z,0
2017-01-16T03:36:51.845Z,0
2017-01-16T03:37:32.376Z,0
2017-01-16T03:38:12.905Z,0
2017-01-16T03:38:53.439Z,0
2017-01-16T03:39:33.963Z,0
2017-01-16T03:40:14.493Z,0
2017-01-16T03:40:55.013Z,0
2017-01-16T03:41:35.555Z,0
2017-01-16T03:42:16.086Z,0
2017-01-16T03:42:56.617Z,0
2017-01-16T03:43:37.146Z,0
2017-01-16T03:44:17.677Z,0
2017-01-16T03:44:58.209Z,0
2017-01-16T03:45:38.736Z,0
2017-01-16T03:46:19.267Z,0
2017-01-16T03:46:59.794Z,0
2017-01-16T03:47:40.324Z,0
2017-01-16T03:48:20.857Z,0
2017-01-16T03:49:01.378Z,0
2017-01-16T03:49:41.895Z,0
2017-01-16T03:50:22.421Z,0
2017-01-16T03:51:02.959Z,0
2017-01-16T03:51:43.499Z,0
2017-01-16T03:52:24.010Z,0
2017-01-16T03:53:04.539Z,0
2017-01-16T03:53:45.067Z,0
2017-01-16T03:54:25.600Z,0
2017-01-16T03:55:06.135Z,0
2017-01-16T03:55:46.659Z,0
2017-01-16T03:56:27.189Z,0
2017-01-16T03:57:07.726Z,0
2017-01-16T03:57:48.258Z,0
2017-01-16T03:58:28.794Z,0
2017-01-16T03:59:09.312Z,0
2017-01-16T03:59:49.843Z,0
2017-01-16T04:00:30.376Z,0
2017-01-16T04:01:10.897Z,0
2017-01-16T04:01:51.416Z,0
2017-01-16T04:02:31.946Z,0
2017-01-16T04:03:12.526Z,0
2017-01-16T04:03:53.054Z,0
2017-01-16T04:04:33.575Z,0
2017-01-16T04:05:14.120Z,0
2017-01-16T04:05:54.643Z,0
2017-01-16T04:06:35.166Z,0
2017-01-16T04:07:15.695Z,0
2017-01-16T04:07:56.233Z,0
2017-01-16T04:08:36.765Z,0
2017-01-16T04:09:17.295Z,0
2017-01-16T04:09:57.821Z,0
2017-01-16T04:10:38.346Z,0
2017-01-16T04:11:18.885Z,0
2017-01-16T04:11:59.424Z,0
2017-01-16T04:12:39.964Z,0
2017-01-16T04:13:20.490Z,0
2017-01-16T04:14:01.023Z,0
2017-01-16T04:14:41.549Z,0
2017-01-16T04:15:22.080Z,0
2017-01-16T04:16:02.624Z,0
2017-01-16T04:16:43.156Z,0
2017-01-16T04:17:23.694Z,0
2017-01-16T04:18:04.225Z,0
2017-01-16T04:18:44.753Z,0
2017-01-16T04:19:25.285Z,0
2017-01-16T04:20:05.807Z,0
2017-01-16T04:20:46.337Z,0
2017-01-16T04:21:26.864Z,0
2017-01-16T04:22:07.394Z,0
2017-01-16T04:22:47.925Z,0
2017-01-16T04:23:28.460Z,0
2017-01-16T04:24:09.017Z,0
2017-01-16T04:24:49.518Z,0
2017-01-16T04:25:30.042Z,0
2017-01-16T04:26:10.585Z,0
2017-01-16T04:26:51.106Z,0
2017-01-16T04:27:31.632Z,0
2017-01-16T04:28:12.154Z,0
2017-01-16T04:28:52.684Z,0
2017-01-16T04:29:33.214Z,0
2017-01-16T04:30:13.741Z,0
2017-01-16T04:30:54.272Z,0
2017-01-16T04:31:34.801Z,0
2017-01-16T04:32:15.337Z,0
2017-01-16T04:32:55.865Z,0
2017-01-16T04:33:36.385Z,0
2017-01-16T04:34:16.912Z,0
2017-01-16T04:34:57.444Z,0
2017-01-16T04:35:37.985Z,0
2017-01-16T04:36:18.540Z,0
2017-01-16T04:36:59.072Z,0
2017-01-16T04:37:39.607Z,0
2017-01-16T04:38:20.136Z,0
2017-01-16T04:39:00.665Z,0
2017-01-16T04:39:41.203Z,0
2017-01-16T04:40:21.736Z,0
2017-01-16T04:41:02.270Z,0
2017-01-16T04:41:42.803Z,0
2017-01-16T04:42:23.328Z,0
2017-01-16T04:43:03.845Z,0
2017-01-16T04:43:44.372Z,0
2017-01-16T04:44:24.892Z,0
2017-01-16T04:45:05.429Z,0
2017-01-16T04:45:45.946Z,0
2017-01-16T04:46:26.492Z,0
2017-01-16T04:47:07.025Z,0
2017-01-16T04:47:47.545Z,0
2017-01-16T04:48:28.072Z,0
2017-01-16T04:49:08.609Z,0
2017-01-16T04:49:49.160Z,0
2017-01-16T04:50:29.684Z,0
2017-01-16T04:51:10.295Z,0
2017-01-16T04:51:50.846Z,0
2017-01-16T04:52:31.439Z,0
2017-01-16T04:53:11.988Z,0
2017-01-16T04:53:52.509Z,0
2017-01-16T04:54:33.051Z,0
2017-01-16T04:55:13.583Z,0
2017-01-16T04:55:54.142Z,0
2017-01-16T04:56:34.687Z,0
2017-01-16T04:57:15.228Z,0
2017-01-16T04:57:55.783Z,0
2017-01-16T04:58:36.373Z,0
2017-01-16T04:59:16.940Z,0
2017-01-16T05:00:00.011Z,0
2017-01-16T05:00:40.547Z,0
2017-01-16T05:01:21.084Z,0
2017-01-16T05:02:01.640Z,0
2017-01-16T05:02:42.174Z,0
2017-01-16T05:03:22.713Z,0
2017-01-16T05:04:03.252Z,0
2017-01-16T05:04:43.784Z,0
2017-01-16T05:05:24.314Z,0
2017-01-16T05:06:04.850Z,0
2017-01-16T05:06:45.389Z,0
2017-01-16T05:07:25.910Z,0
2017-01-16T05:08:06.438Z,0
2017-01-16T05:08:47.013Z,0
2017-01-16T05:09:27.537Z,0
2017-01-16T05:10:08.053Z,0
2017-01-16T05:10:48.590Z,0
2017-01-16T05:11:29.155Z,0
2017-01-16T05:12:09.719Z,0
2017-01-16T05:12:50.258Z,0
2017-01-16T05:13:30.779Z,0
2017-01-16T05:14:11.316Z,0
2017-01-16T05:14:51.841Z,0
2017-01-16T05:15:32.374Z,0
2017-01-16T05:16:12.909Z,0
2017-01-16T05:16:53.469Z,0
2017-01-16T05:17:34.021Z,0
2017-01-16T05:18:14.556Z,0
2017-01-16T05:18:55.087Z,0
2017-01-16T05:19:35.615Z,0
2017-01-16T05:20:16.139Z,0
2017-01-16T05:20:56.698Z,0
2017-01-16T05:21:37.230Z,0
2017-01-16T05:22:17.748Z,0
2017-01-16T05:22:58.292Z,0
2017-01-16T05:23:38.823Z,0
2017-01-16T05:24:19.357Z,0
2017-01-16T05:24:59.878Z,0
2017-01-16T05:25:40.413Z,0
2017-01-16T05:26:20.941Z,0
2017-01-16T05:27:01.476Z,0
2017-01-16T05:27:42.027Z,0
2017-01-16T05:28:22.574Z,0
2017-01-16T05:29:03.091Z,0
2017-01-16T05:29:43.642Z,0
2017-01-16T05:30:24.168Z,0
2017-01-16T05:31:04.709Z,0
2017-01-16T05:31:45.321Z,0
2017-01-16T05:32:25.849Z,0
2017-01-16T05:33:06.405Z,0
2017-01-16T05:33:46.948Z,0
2017-01-16T05:34:27.486Z,0
2017-01-16T05:35:08.009Z,0
2017-01-16T05:35:48.541Z,0
2017-01-16T05:36:29.071Z,0
2017-01-16T05:37:09.601Z,0
2017-01-16T05:37:50.130Z,0
2017-01-16T05:38:30.663Z,0
2017-01-16T05:39:11.181Z,0
2017-01-16T05:39:51.704Z,0
2017-01-16T05:40:32.237Z,0
2017-01-16T05:41:12.797Z,0
2017-01-16T05:41:53.301Z,0
2017-01-16T05:42:33.836Z,0
2017-01-16T05:43:14.345Z,0
2017-01-16T05:43:54.877Z,0
2017-01-16T05:44:35.411Z,0
2017-01-16T05:45:15.956Z,0
2017-01-16T05:45:56.487Z,0
2017-01-16T05:46:37.021Z,0
2017-01-16T05:47:17.552Z,0
2017-01-16T05:47:58.083Z,0
2017-01-16T05:48:38.629Z,0
2017-01-16T05:49:19.162Z,0
2017-01-16T05:49:59.722Z,0
2017-01-16T05:50:40.239Z,0
2017-01-16T05:51:20.753Z,0
2017-01-16T05:52:01.289Z,0
2017-01-16T05:52:41.794Z,0
2017-01-16T05:53:22.333Z,0
2017-01-16T05:54:02.859Z,0
2017-01-16T05:54:43.390Z,0
2017-01-16T05:55:23.923Z,0
2017-01-16T05:56:04.458Z,0
2017-01-16T05:56:44.993Z,0
2017-01-16T05:57:25.560Z,0
2017-01-16T05:58:06.087Z,0
2017-01-16T05:58:46.623Z,0
2017-01-16T05:59:27.151Z,0
2017-01-16T06:00:07.682Z,0
2017-01-16T06:00:48.224Z,0
2017-01-16T06:01:28.751Z,0
2017-01-16T06:02:09.278Z,0
2017-01-16T06:02:49.812Z,0
2017-01-16T06:03:30.346Z,0
2017-01-16T06:04:10.882Z,0
2017-01-16T06:04:51.406Z,0
2017-01-16T06:05:31.960Z,0
2017-01-16T06:06:12.505Z,0
2017-01-16T06:06:53.026Z,0
2017-01-16T06:07:33.551Z,0
2017-01-16T06:08:14.127Z,0
2017-01-16T06:08:54.664Z,0
2017-01-16T06:09:35.183Z,0
2017-01-16T06:10:15.703Z,0
2017-01-16T06:10:56.208Z,0
2017-01-16T06:11:36.742Z,0
2017-01-16T06:12:17.276Z,0
2017-01-16T06:12:57.833Z,0
2017-01-16T06:13:38.367Z,0
2017-01-16T06:14:18.905Z,0
2017-01-16T06:14:59.426Z,0
2017-01-16T06:15:39.937Z,0
2017-01-16T06:16:20.461Z,0
2017-01-16T06:17:01.012Z,0
2017-01-16T06:17:41.596Z,0
2017-01-16T06:18:22.114Z,0
2017-01-16T06:19:02.670Z,0
2017-01-16T06:19:43.247Z,0
2017-01-16T06:20:23.779Z,0
2017-01-16T06:21:04.303Z,0
2017-01-16T06:21:44.876Z,0
2017-01-16T06:22:25.447Z,0
2017-01-16T06:23:05.976Z,0
2017-01-16T06:23:46.508Z,0
2017-01-16T06:24:27.037Z,0
2017-01-16T06:25:07.583Z,0
2017-01-16T06:25:48.154Z,0
2017-01-16T06:26:28.686Z,0
2017-01-16T06:27:09.215Z,0
2017-01-16T06:27:49.780Z,0
2017-01-16T06:28:30.320Z,0
2017-01-16T06:29:10.874Z,0
2017-01-16T06:29:51.407Z,0
2017-01-16T06:32:10.728Z,0
2017-01-16T06:32:51.255Z,0
2017-01-16T06:33:31.784Z,0
2017-01-16T06:34:12.317Z,0
2017-01-16T06:34:52.895Z,0
2017-01-16T06:35:33.421Z,0
2017-01-16T06:36:13.985Z,0
2017-01-16T06:36:54.528Z,0
2017-01-16T06:37:35.048Z,0
2017-01-16T06:38:15.563Z,0
2017-01-16T06:38:56.089Z,0
2017-01-16T06:39:36.619Z,0
2017-01-16T06:40:17.149Z,0
2017-01-16T06:40:57.667Z,0
2017-01-16T06:41:38.187Z,0
2017-01-16T06:42:18.741Z,0
2017-01-16T06:42:59.248Z,0
2017-01-16T06:43:39.778Z,0
2017-01-16T06:44:20.307Z,0
2017-01-16T06:45:00.840Z,0
2017-01-16T06:45:41.369Z,0
2017-01-16T06:46:21.903Z,0
2017-01-16T06:47:02.431Z,0
2017-01-16T06:47:42.949Z,0
2017-01-16T06:48:23.483Z,0
2017-01-16T06:49:04.056Z,0
2017-01-16T06:49:44.573Z,0
2017-01-16T06:50:25.117Z,0
2017-01-16T06:51:05.640Z,0
2017-01-16T06:51:46.156Z,0
2017-01-16T06:52:26.684Z,0
2017-01-16T06:53:07.222Z,0
2017-01-16T06:53:47.729Z,0
2017-01-16T06:54:28.250Z,0
2017-01-16T06:55:08.794Z,0
2017-01-16T06:55:49.336Z,0
2017-01-16T06:56:29.867Z,0
2017-01-16T06:57:10.411Z,0
2017-01-16T06:57:50.965Z,0
2017-01-16T06:58:31.474Z,0
2017-01-16T06:59:12.002Z,0
2017-01-16T06:59:52.531Z,0
2017-01-16T07:00:33.061Z,0
2017-01-16T07:01:13.634Z,0
2017-01-16T07:01:54.166Z,0
2017-01-16T07:02:34.687Z,0
2017-01-16T07:03:15.218Z,0
2017-01-16T07:03:55.829Z,0
2017-01-16T07:04:36.390Z,0
2017-01-16T07:05:16.943Z,0
2017-01-16T07:05:57.498Z,0
2017-01-16T07:06:38.034Z,0
2017-01-16T07:07:18.577Z,0
2017-01-16T07:07:59.122Z,0
2017-01-16T07:08:39.637Z,0
2017-01-16T07:09:20.163Z,0
2017-01-16T07:10:00.723Z,0
2017-01-16T07:10:41.257Z,0
2017-01-16T07:11:21.798Z,0
2017-01-16T07:12:02.367Z,0
2017-01-16T07:12:42.957Z,0
2017-01-16T07:13:23.479Z,0
2017-01-16T07:14:03.988Z,0
2017-01-16T07:14:44.499Z,0
2017-01-16T07:15:25.109Z,0
2017-01-16T07:16:05.624Z,0
2017-01-16T07:16:46.133Z,0
2017-01-16T07:17:26.707Z,0
2017-01-16T07:18:07.235Z,0
2017-01-16T07:18:47.753Z,0
2017-01-16T07:19:28.295Z,0
2017-01-16T07:20:08.853Z,0
2017-01-16T07:20:49.409Z,0
2017-01-16T07:21:29.985Z,0
2017-01-16T07:22:10.518Z,0
2017-01-16T07:22:51.044Z,0
2017-01-16T07:23:31.578Z,0
2017-01-16T07:24:12.129Z,0
2017-01-16T07:24:52.643Z,0
2017-01-16T07:25:33.187Z,0
2017-01-16T07:26:13.751Z,0
2017-01-16T07:26:54.292Z,0
2017-01-16T07:27:34.834Z,0
2017-01-16T07:28:15.354Z,0
2017-01-16T07:28:55.902Z,0
2017-01-16T07:29:36.464Z,0
2017-01-16T07:30:17.007Z,0
2017-01-16T07:30:57.542Z,5
2017-01-16T07:31:38.076Z,5
2017-01-16T07:32:18.596Z,5
2017-01-16T07:32:59.157Z,5
2017-01-16T07:33:39.668Z,5
2017-01-16T07:34:20.223Z,5
2017-01-16T07:35:00.787Z,5
2017-01-16T07:35:41.316Z,5
2017-01-16T07:36:21.855Z,5
2017-01-16T07:37:02.395Z,5
2017-01-16T07:37:42.907Z,10
2017-01-16T07:38:23.440Z,10
2017-01-16T07:39:03.966Z,10
2017-01-16T07:39:44.495Z,10
2017-01-16T07:40:25.023Z,10
2017-01-16T07:41:05.550Z,10
2017-01-16T07:41:46.070Z,10
2017-01-16T07:42:26.614Z,10
2017-01-16T07:43:07.144Z,10
2017-01-16T07:43:47.672Z,10
2017-01-16T07:44:28.203Z,10
2017-01-16T07:45:08.729Z,15
2017-01-16T07:45:49.266Z,15
2017-01-16T07:46:29.794Z,15
2017-01-16T07:47:10.319Z,15
2017-01-16T07:47:50.843Z,15
2017-01-16T07:48:31.373Z,15
2017-01-16T07:49:11.897Z,15
2017-01-16T07:49:52.428Z,15
2017-01-16T07:50:32.960Z,15
2017-01-16T07:51:13.498Z,10
2017-01-16T07:51:54.036Z,10
2017-01-16T07:52:34.566Z,10
2017-01-16T07:53:15.099Z,10
2017-01-16T07:53:55.620Z,10
2017-01-16T07:54:36.147Z,15
2017-01-16T07:55:16.714Z,15
2017-01-16T07:55:57.229Z,15
2017-01-16T07:56:37.757Z,15
2017-01-16T07:57:18.324Z,15
2017-01-16T07:57:58.876Z,20
2017-01-16T07:58:39.403Z,20
2017-01-16T07:59:19.926Z,20
2017-01-16T08:00:00.454Z,20
2017-01-16T08:00:40.979Z,20
2017-01-16T08:01:21.509Z,20
2017-01-16T08:02:02.056Z,20
2017-01-16T08:02:42.589Z,20
2017-01-16T08:03:23.114Z,20
2017-01-16T08:04:03.635Z,20
2017-01-16T08:04:44.162Z,20
2017-01-16T08:05:24.706Z,25
2017-01-16T08:06:05.238Z,20
2017-01-16T08:06:45.789Z,20
2017-01-16T08:07:26.304Z,20
2017-01-16T08:08:06.841Z,15
2017-01-16T08:08:47.377Z,15
2017-01-16T08:09:27.910Z,20
2017-01-16T08:10:08.417Z,25
2017-01-16T08:10:48.945Z,25
2017-01-16T08:11:29.486Z,25
2017-01-16T08:12:10.012Z,25
2017-01-16T08:12:50.538Z,30
2017-01-16T08:13:31.073Z,25
2017-01-16T08:14:11.586Z,25
2017-01-16T08:14:52.116Z,25
2017-01-16T08:15:32.640Z,25
2017-01-16T08:16:13.167Z,25
2017-01-16T08:16:53.704Z,30
2017-01-16T08:17:34.213Z,30
2017-01-16T08:18:14.741Z,35
2017-01-16T08:18:55.269Z,35
2017-01-16T08:19:35.792Z,40
2017-01-16T08:20:16.322Z,40
2017-01-16T08:20:56.939Z,40
2017-01-16T08:21:37.465Z,35
2017-01-16T08:22:18.022Z,40
2017-01-16T08:22:58.563Z,40
2017-01-16T08:23:39.128Z,35
2017-01-16T08:24:19.687Z,35
2017-01-16T08:25:00.260Z,35
2017-01-16T08:25:40.778Z,35
2017-01-16T08:26:21.312Z,40
2017-01-16T08:27:01.838Z,40
2017-01-16T08:27:42.362Z,40
2017-01-16T08:28:22.886Z,40
2017-01-16T08:29:03.429Z,40
2017-01-16T08:29:43.936Z,40
2017-01-16T08:30:24.478Z,45
2017-01-16T08:31:05.030Z,45
2017-01-16T08:31:45.554Z,45
2017-01-16T08:32:26.079Z,45
2017-01-16T08:33:06.613Z,40
2017-01-16T08:33:47.210Z,40
2017-01-16T08:34:27.732Z,45
2017-01-16T08:35:08.253Z,40
2017-01-16T08:35:48.804Z,40
2017-01-16T08:36:29.332Z,45
2017-01-16T08:37:09.862Z,50
2017-01-16T08:37:50.380Z,45
2017-01-16T08:38:30.925Z,50
2017-01-16T08:39:11.513Z,60
2017-01-16T08:39:52.030Z,65
2017-01-16T08:40:32.572Z,70
2017-01-16T08:41:13.104Z,70
2017-01-16T08:41:53.632Z,80
2017-01-16T08:42:34.160Z,80
2017-01-16T08:43:14.684Z,75
2017-01-16T08:43:55.221Z,75
2017-01-16T08:44:35.790Z,80
2017-01-16T08:45:16.319Z,85
2017-01-16T08:45:56.888Z,90
2017-01-16T08:46:37.420Z,95
2017-01-16T08:47:17.979Z,95
2017-01-16T08:47:58.515Z,100
2017-01-16T08:48:39.072Z,110
2017-01-16T08:49:19.607Z,115
2017-01-16T08:50:00.122Z,120
2017-01-16T08:50:40.670Z,125
2017-01-16T08:51:21.219Z,125
2017-01-16T08:52:01.777Z,125
2017-01-16T08:52:42.289Z,115
2017-01-16T08:53:22.818Z,110
2017-01-16T08:54:03.357Z,100
2017-01-16T08:54:43.894Z,95
2017-01-16T08:55:24.398Z,100
2017-01-16T08:56:04.928Z,95
2017-01-16T08:56:45.479Z,95
2017-01-16T08:57:25.999Z,95
2017-01-16T08:58:06.517Z,95
2017-01-16T08:58:47.020Z,110
2017-01-16T08:59:27.569Z,120
2017-01-16T09:00:08.080Z,125
2017-01-16T09:00:48.595Z,120
2017-01-16T09:01:29.128Z,125
2017-01-16T09:02:09.647Z,145
2017-01-16T09:02:50.165Z,160
2017-01-16T09:03:30.690Z,160
2017-01-16T09:04:11.221Z,195
2017-01-16T09:04:51.740Z,150
2017-01-16T09:05:32.269Z,85
2017-01-16T09:06:12.786Z,50
2017-01-16T09:06:53.299Z,45
2017-01-16T09:07:33.824Z,45
2017-01-16T09:08:14.338Z,45
2017-01-16T09:08:54.881Z,40
2017-01-16T09:09:35.415Z,35
2017-01-16T09:10:15.953Z,35
2017-01-16T09:10:56.480Z,40
2017-01-16T09:11:36.979Z,40
2017-01-16T09:12:17.523Z,50
2017-01-16T09:12:58.059Z,45
2017-01-16T09:13:38.603Z,45
2017-01-16T09:14:19.120Z,55
2017-01-16T09:14:59.654Z,65
2017-01-16T09:15:40.180Z,75
2017-01-16T09:16:20.715Z,80
2017-01-16T09:17:01.241Z,80
2017-01-16T09:17:41.778Z,70
2017-01-16T09:18:22.310Z,65
2017-01-16T09:19:02.826Z,65
2017-01-16T09:19:43.342Z,65
2017-01-16T09:20:23.874Z,65
2017-01-16T09:21:04.388Z,60
2017-01-16T09:21:44.924Z,55
2017-01-16T09:22:25.444Z,55
2017-01-16T09:23:05.969Z,60
2017-01-16T09:23:46.497Z,60
2017-01-16T09:24:27.023Z,65
2017-01-16T09:25:07.546Z,80
2017-01-16T09:25:48.067Z,95
2017-01-16T09:26:28.570Z,100
2017-01-16T09:27:09.110Z,95
2017-01-16T09:27:49.632Z,90
2017-01-16T09:28:30.158Z,95
2017-01-16T09:29:10.691Z,95
2017-01-16T09:29:51.223Z,95
2017-01-16T09:30:31.761Z,105
2017-01-16T09:31:12.274Z,115
2017-01-16T09:31:52.797Z,125
2017-01-16T09:32:33.329Z,130
2017-01-16T09:33:13.861Z,130
2017-01-16T09:33:54.384Z,130
2017-01-16T09:34:34.885Z,140
2017-01-16T09:35:15.419Z,145
2017-01-16T09:35:55.963Z,150
2017-01-16T09:36:36.494Z,150
2017-01-16T09:37:17.022Z,155
2017-01-16T09:37:57.551Z,190
2017-01-16T09:38:38.087Z,195
2017-01-16T09:39:18.618Z,170
2017-01-16T09:39:59.137Z,205
2017-01-16T09:40:39.672Z,145
2017-01-16T09:41:20.205Z,150
2017-01-16T09:42:00.734Z,150
2017-01-16T09:42:41.268Z,155
2017-01-16T09:43:21.797Z,155
2017-01-16T09:44:02.324Z,155
2017-01-16T09:44:42.853Z,150
2017-01-16T09:45:23.391Z,160
2017-01-16T09:46:03.921Z,160
2017-01-16T09:46:44.458Z,170
2017-01-16T09:47:24.993Z,200
2017-01-16T09:48:05.520Z,165
2017-01-16T09:48:46.054Z,165
2017-01-16T09:49:26.591Z,160
2017-01-16T09:50:07.117Z,165
2017-01-16T09:50:47.649Z,175
2017-01-16T09:51:28.173Z,170
2017-01-16T09:52:08.709Z,175
2017-01-16T09:52:49.246Z,145
2017-01-16T09:53:29.780Z,145
2017-01-16T09:54:10.327Z,155
2017-01-16T09:54:50.857Z,175
2017-01-16T09:55:31.409Z,215
2017-01-16T09:56:11.933Z,180
2017-01-16T09:56:52.455Z,205
2017-01-16T09:57:32.996Z,200
2017-01-16T09:58:13.529Z,205
2017-01-16T09:58:54.057Z,215
2017-01-16T09:59:34.600Z,265
2017-01-16T10:00:15.137Z,270
2017-01-16T10:00:55.676Z,170
2017-01-16T10:01:36.217Z,165
2017-01-16T10:02:16.753Z,165
2017-01-16T10:02:57.289Z,420
2017-01-16T10:03:37.832Z,235
2017-01-16T10:04:18.362Z,250
2017-01-16T10:04:58.894Z,480
2017-01-16T10:05:39.428Z,755
2017-01-16T10:06:19.970Z,785
2017-01-16T10:07:00.506Z,275
2017-01-16T10:07:41.031Z,210
2017-01-16T10:08:21.559Z,185
2017-01-16T10:09:02.088Z,175
2017-01-16T10:09:42.622Z,170
2017-01-16T10:10:23.157Z,170
2017-01-16T10:11:03.713Z,175
2017-01-16T10:11:44.249Z,175
2017-01-16T10:12:24.792Z,160
2017-01-16T10:13:05.329Z,170
2017-01-16T10:13:45.847Z,165
2017-01-16T10:14:26.384Z,165
2017-01-16T10:15:06.916Z,160
2017-01-16T10:15:47.456Z,165
2017-01-16T10:16:28.000Z,165
2017-01-16T10:17:08.546Z,175
2017-01-16T10:17:49.077Z,255
2017-01-16T10:18:29.610Z,180
2017-01-16T10:19:10.130Z,180
2017-01-16T10:19:50.680Z,170
2017-01-16T10:20:31.213Z,170
2017-01-16T10:21:11.748Z,180
2017-01-16T10:21:52.283Z,220
2017-01-16T10:22:32.816Z,290
2017-01-16T10:23:13.349Z,590
2017-01-16T10:23:53.872Z,325
2017-01-16T10:24:34.409Z,705
2017-01-16T10:25:14.951Z,435
2017-01-16T10:25:55.483Z,495
2017-01-16T10:26:36.011Z,715
2017-01-16T10:27:16.550Z,645